Time;durP1;ratioP1;P1;durP2;ratioP2;P2;SDS_P1;SDS_P2;PMS_P1;PMS_P2;Temp;Humidity;BMP_temperature;BMP_pressure;BME280_temperature;BME280_humidity;BME280_pressure;Samples;Min_cycle;Max_cycle;Signal;HPM_P1;HPM_P2
2022/03/29 00:01:14;;;;;;;28.95;17.10;;;7.30;99.90;;;;;;4959908;29;20075;-57
2022/03/29 00:03:40;;;;;;;30.10;16.83;;;7.30;99.90;;;;;;4959931;29;20050;-57
2022/03/29 00:06:06;;;;;;;30.95;16.42;;;7.20;99.90;;;;;;4961413;29;20546;-57
2022/03/29 00:08:32;;;;;;;24.70;15.23;;;7.40;99.90;;;;;;4960005;28;20046;-58
2022/03/29 00:10:57;;;;;;;26.85;16.45;;;7.20;99.90;;;;;;4961190;28;20130;-58
2022/03/29 00:13:23;;;;;;;29.25;15.93;;;7.30;99.90;;;;;;4960166;28;20052;-58
2022/03/29 00:15:49;;;;;;;27.52;15.63;;;7.30;99.90;;;;;;4960266;28;20075;-58
2022/03/29 00:18:15;;;;;;;24.63;15.07;;;7.30;99.90;;;;;;4960967;28;20042;-58
2022/03/29 00:20:41;;;;;;;26.20;15.57;;;7.20;99.90;;;;;;4959987;29;20039;-59
2022/03/29 00:23:06;;;;;;;24.02;15.20;;;7.20;99.90;;;;;;4961255;28;20043;-58
2022/03/29 00:25:32;;;;;;;23.55;14.32;;;7.10;99.90;;;;;;4959598;29;20446;-58
2022/03/29 00:27:59;;;;;;;26.50;14.20;;;7.20;99.90;;;;;;4961170;28;20045;-58
2022/03/29 00:30:24;;;;;;;23.95;15.25;;;7.10;99.90;;;;;;4962278;28;20148;-57
2022/03/29 00:32:50;;;;;;;28.48;14.55;;;7.10;99.90;;;;;;4964151;28;20343;-57
2022/03/29 00:35:16;;;;;;;29.52;15.73;;;7.10;99.90;;;;;;4964033;29;20516;-58
2022/03/29 00:37:43;;;;;;;26.10;15.20;;;7.10;99.90;;;;;;4963397;29;20055;-58
2022/03/29 00:40:11;;;;;;;25.00;14.73;;;7.00;99.90;;;;;;4963243;29;20170;-58
2022/03/29 00:42:38;;;;;;;24.67;14.30;;;7.10;99.90;;;;;;4963102;28;20051;-57
2022/03/29 00:45:04;;;;;;;26.23;14.82;;;7.00;99.90;;;;;;4964754;28;20075;-58
2022/03/29 00:47:30;;;;;;;26.67;15.93;;;7.10;99.90;;;;;;4963135;28;20047;-57
2022/03/29 00:49:56;;;;;;;27.00;15.45;;;7.10;99.90;;;;;;4963991;29;20110;-57
2022/03/29 00:52:22;;;;;;;25.95;15.45;;;7.10;99.90;;;;;;4963825;28;20575;-58
2022/03/29 00:54:49;;;;;;;25.88;15.77;;;7.20;99.90;;;;;;4963524;28;20051;-58
2022/03/29 00:57:15;;;;;;;27.25;16.02;;;7.20;99.90;;;;;;4963876;28;20043;-58
2022/03/29 00:59:43;;;;;;;24.58;14.32;;;7.20;99.90;;;;;;4962922;28;20518;-58
2022/03/29 01:02:09;;;;;;;24.83;15.82;;;7.10;99.90;;;;;;4962876;29;20466;-58
2022/03/29 01:04:35;;;;;;;24.15;14.80;;;7.20;99.90;;;;;;4962858;29;20423;-58
2022/03/29 01:07:00;;;;;;;27.85;16.13;;;7.10;99.90;;;;;;4963972;29;20039;-58
2022/03/29 01:09:27;;;;;;;28.38;14.77;;;7.20;99.90;;;;;;4962177;29;20043;-58
2022/03/29 01:11:53;;;;;;;25.20;15.23;;;7.10;99.90;;;;;;4962576;28;20046;-58
2022/03/29 01:14:24;;;;;;;28.35;16.33;;;7.10;99.90;;;;;;4963763;28;20039;-58
2022/03/29 01:19:40;;;;;;;25.50;15.70;;;7.10;99.90;;;;;;4963786;29;20133;-58
2022/03/29 01:22:09;;;;;;;30.55;17.05;;;7.10;99.90;;;;;;4963049;28;20102;-58
2022/03/29 01:24:43;;;;;;;28.75;18.17;;;7.10;99.90;;;;;;4962984;28;20035;-58
2022/03/29 01:27:09;;;;;;;31.90;19.10;;;7.00;99.90;;;;;;4963591;28;20047;-59
2022/03/29 01:29:37;;;;;;;33.45;19.63;;;7.10;99.90;;;;;;4961277;29;20042;-58
2022/03/29 01:32:05;;;;;;;28.80;18.63;;;7.10;99.90;;;;;;4963902;28;20043;-59
2022/03/29 01:34:32;;;;;;;31.92;18.60;;;7.10;99.90;;;;;;4962225;28;20106;-59
2022/03/29 01:36:57;;;;;;;32.40;18.15;;;7.10;99.90;;;;;;4962933;28;20604;-59
2022/03/29 01:39:23;;;;;;;33.40;19.05;;;7.10;99.90;;;;;;4963099;28;20075;-58
2022/03/29 01:41:49;;;;;;;29.92;19.85;;;7.00;99.90;;;;;;4961733;28;20094;-59
2022/03/29 01:44:15;;;;;;;30.50;18.85;;;7.20;99.90;;;;;;4963374;29;20079;-59
2022/03/29 01:46:41;;;;;;;30.40;19.85;;;7.10;99.90;;;;;;4961853;29;20047;-59
2022/03/29 01:49:08;;;;;;;37.67;19.60;;;7.10;99.90;;;;;;4963357;29;20066;-59
2022/03/29 01:51:34;;;;;;;30.27;18.85;;;7.00;99.90;;;;;;4961998;28;20048;-59
2022/03/29 01:54:04;;;;;;;32.00;18.00;;;7.00;99.90;;;;;;4963126;29;20428;-59
2022/03/29 01:56:32;;;;;;;33.08;19.00;;;6.80;99.90;;;;;;4962375;28;20130;-59
2022/03/29 01:59:08;;;;;;;29.83;19.08;;;6.80;99.90;;;;;;4962229;28;20106;-59
2022/03/29 02:01:45;;;;;;;33.40;19.48;;;6.80;99.90;;;;;;4945783;29;20054;-59
2022/03/29 02:04:12;;;;;;;30.27;18.08;;;6.90;99.90;;;;;;4960379;29;20054;-59
2022/03/29 02:06:38;;;;;;;33.55;19.42;;;6.90;99.90;;;;;;4963017;28;20046;-59
2022/03/29 02:09:08;;;;;;;34.58;19.13;;;7.00;99.90;;;;;;4962034;29;20039;-56
2022/03/29 02:11:35;;;;;;;31.60;18.23;;;6.90;99.90;;;;;;4962207;28;20140;-59
2022/03/29 02:14:02;;;;;;;36.95;19.48;;;6.90;99.90;;;;;;4962632;28;20053;-59
2022/03/29 02:16:28;;;;;;;28.55;18.35;;;7.00;99.90;;;;;;4943812;29;20078;-59
2022/03/29 02:18:54;;;;;;;32.47;17.20;;;6.90;99.90;;;;;;4961629;29;20043;-59
2022/03/29 02:21:19;;;;;;;32.33;19.13;;;6.80;99.90;;;;;;4961522;29;20043;-59
2022/03/29 02:23:45;;;;;;;29.00;17.25;;;6.90;99.90;;;;;;4962698;29;20050;-59
2022/03/29 02:26:11;;;;;;;31.00;18.48;;;6.90;99.90;;;;;;4961774;29;20570;-59
2022/03/29 02:28:38;;;;;;;34.25;19.40;;;6.90;99.90;;;;;;4961840;29;20047;-59
2022/03/29 02:31:04;;;;;;;31.00;18.30;;;6.80;99.90;;;;;;4961930;29;20079;-59
2022/03/29 02:33:30;;;;;;;32.75;17.70;;;6.90;99.90;;;;;;4961251;28;20099;-56
2022/03/29 02:35:56;;;;;;;31.70;18.17;;;6.70;99.90;;;;;;4960989;29;20058;-59
2022/03/29 02:38:21;;;;;;;38.55;18.73;;;6.90;99.90;;;;;;4960046;29;20159;-60
2022/03/29 02:40:48;;;;;;;32.28;17.80;;;6.90;99.90;;;;;;4962481;29;20423;-59
2022/03/29 02:43:13;;;;;;;33.33;18.38;;;6.80;99.90;;;;;;4961357;28;20122;-59
2022/03/29 02:45:39;;;;;;;31.73;17.27;;;6.80;99.90;;;;;;4961464;29;20043;-59
2022/03/29 02:48:05;;;;;;;32.50;18.40;;;6.90;99.90;;;;;;4962089;28;20504;-59
2022/03/29 02:50:31;;;;;;;30.38;18.38;;;6.90;99.90;;;;;;4959840;29;20046;-60
2022/03/29 02:52:59;;;;;;;32.85;18.38;;;6.90;99.90;;;;;;4961306;28;20047;-59
2022/03/29 02:55:30;;;;;;;34.70;18.92;;;6.90;99.90;;;;;;4961041;28;20062;-59
2022/03/29 02:57:56;;;;;;;30.88;17.90;;;7.00;99.90;;;;;;4961943;28;20039;-57
2022/03/29 03:00:22;;;;;;;34.28;17.02;;;7.00;99.90;;;;;;4961048;28;20102;-57
2022/03/29 03:02:50;;;;;;;31.65;18.13;;;6.80;99.90;;;;;;4944402;29;20097;-56
2022/03/29 03:05:16;;;;;;;34.65;19.40;;;6.90;99.90;;;;;;4961594;28;20039;-59
2022/03/29 03:07:44;;;;;;;30.45;17.80;;;6.90;99.90;;;;;;4960819;28;20058;-57
2022/03/29 03:10:11;;;;;;;30.50;18.33;;;6.70;99.90;;;;;;4962003;28;20051;-57
2022/03/29 03:12:42;;;;;;;32.50;18.13;;;6.80;99.90;;;;;;4960273;28;20054;-57
2022/03/29 03:15:09;;;;;;;29.55;17.05;;;6.80;99.90;;;;;;4960598;29;20039;-57
2022/03/29 03:17:35;;;;;;;34.63;18.90;;;6.70;99.90;;;;;;4960329;28;20050;-56
2022/03/29 03:20:01;;;;;;;32.50;17.33;;;6.80;99.90;;;;;;4959996;29;20067;-57
2022/03/29 03:22:27;;;;;;;31.65;17.75;;;6.80;99.90;;;;;;4961365;29;20039;-57
2022/03/29 03:24:52;;;;;;;32.35;18.20;;;6.80;99.90;;;;;;4960369;28;20079;-57
2022/03/29 03:27:19;;;;;;;30.65;18.25;;;6.70;99.90;;;;;;4961683;28;20047;-57
2022/03/29 03:29:45;;;;;;;33.45;18.67;;;6.80;99.90;;;;;;4960255;28;20054;-57
2022/03/29 03:32:12;;;;;;;32.33;17.75;;;6.80;99.90;;;;;;4961734;28;20115;-56
2022/03/29 03:34:38;;;;;;;31.27;17.80;;;6.90;99.90;;;;;;4959086;29;20110;-56
2022/03/29 03:37:04;;;;;;;29.55;17.27;;;6.70;99.90;;;;;;4960859;29;20110;-56
2022/03/29 03:39:32;;;;;;;32.40;18.58;;;6.70;99.90;;;;;;4961264;29;20058;-56
2022/03/29 03:41:58;;;;;;;31.40;18.20;;;6.80;99.90;;;;;;4960210;28;20043;-57
2022/03/29 03:44:23;;;;;;;35.55;17.92;;;6.60;99.90;;;;;;4961493;28;20138;-57
2022/03/29 03:46:49;;;;;;;36.22;19.63;;;6.70;99.90;;;;;;4958571;29;20057;-57
2022/03/29 03:49:15;;;;;;;32.78;19.08;;;6.70;99.90;;;;;;4961537;29;20479;-57
2022/03/29 03:51:41;;;;;;;31.83;18.83;;;6.70;99.90;;;;;;4960453;29;20455;-57
2022/03/29 03:54:06;;;;;;;35.13;19.13;;;6.70;99.90;;;;;;4960915;29;20496;-57
2022/03/29 03:56:32;;;;;;;34.08;19.88;;;6.70;99.90;;;;;;4960787;28;20055;-56
2022/03/29 03:58:58;;;;;;;37.08;19.63;;;6.70;99.90;;;;;;4960450;28;20051;-57
2022/03/29 04:01:24;;;;;;;35.88;19.30;;;6.70;99.90;;;;;;4961229;28;20082;-57
2022/03/29 04:03:50;;;;;;;35.28;19.90;;;6.70;99.90;;;;;;4959766;28;20086;-56
2022/03/29 04:06:15;;;;;;;34.03;19.10;;;6.70;99.90;;;;;;4965238;29;20043;-56
2022/03/29 04:08:41;;;;;;;29.65;18.00;;;6.70;99.90;;;;;;4964097;29;20054;-57
2022/03/29 04:11:07;;;;;;;33.30;19.98;;;6.60;99.90;;;;;;4964688;29;20054;-57
2022/03/29 04:13:34;;;;;;;38.28;19.75;;;6.60;99.90;;;;;;4964410;28;20047;-56
2022/03/29 04:16:04;;;;;;;37.97;19.52;;;6.70;99.90;;;;;;4963811;29;20106;-56
2022/03/29 04:18:30;;;;;;;32.30;18.38;;;6.70;99.90;;;;;;4964876;28;20051;-57
2022/03/29 04:21:01;;;;;;;33.00;19.02;;;6.60;99.90;;;;;;4963779;28;20043;-57
2022/03/29 04:23:27;;;;;;;34.25;20.23;;;6.70;99.90;;;;;;4965055;28;20046;-57
2022/03/29 04:25:53;;;;;;;33.45;19.52;;;6.60;99.90;;;;;;4963775;28;20039;-57
2022/03/29 04:28:19;;;;;;;34.75;20.25;;;6.70;99.90;;;;;;4964710;29;20047;-57
2022/03/29 04:30:45;;;;;;;30.55;19.00;;;6.70;99.90;;;;;;4964077;29;20523;-56
2022/03/29 04:33:11;;;;;;;32.70;19.38;;;6.60;99.90;;;;;;4963808;28;20061;-57
2022/03/29 04:35:37;;;;;;;32.83;19.27;;;6.60;99.90;;;;;;4964398;29;20078;-56
2022/03/29 04:38:02;;;;;;;37.45;20.90;;;6.70;99.90;;;;;;4963383;28;20389;-57
2022/03/29 04:40:28;;;;;;;32.90;18.35;;;6.60;99.90;;;;;;4964731;29;20047;-57
2022/03/29 04:42:54;;;;;;;37.92;20.60;;;6.70;99.90;;;;;;4963233;29;20074;-57
2022/03/29 04:45:20;;;;;;;32.42;18.98;;;6.70;99.90;;;;;;4964380;29;20047;-57
2022/03/29 04:47:47;;;;;;;39.30;20.60;;;6.70;99.90;;;;;;4963459;29;20051;-57
2022/03/29 04:50:15;;;;;;;35.60;20.10;;;6.70;99.90;;;;;;4963707;28;20046;-57
2022/03/29 04:52:44;;;;;;;35.58;21.10;;;6.70;99.90;;;;;;4964176;28;20719;-59
2022/03/29 04:55:11;;;;;;;38.45;21.75;;;6.60;99.90;;;;;;4963277;28;20043;-59
2022/03/29 04:57:37;;;;;;;40.30;21.45;;;6.70;99.90;;;;;;4964362;28;20050;-59
2022/03/29 05:00:04;;;;;;;38.35;19.58;;;6.70;99.90;;;;;;4963164;29;20039;-59
2022/03/29 05:02:31;;;;;;;39.22;21.88;;;6.70;99.90;;;;;;4962573;29;20069;-60
2022/03/29 05:04:57;;;;;;;41.15;22.05;;;6.80;99.90;;;;;;4963383;28;20051;-58
2022/03/29 05:07:23;;;;;;;37.13;21.33;;;6.80;99.90;;;;;;4962932;29;20059;-59
2022/03/29 05:09:50;;;;;;;41.42;22.23;;;6.80;99.90;;;;;;4962176;28;20424;-59
2022/03/29 05:12:16;;;;;;;36.05;22.08;;;6.90;99.90;;;;;;4959121;28;20035;-59
2022/03/29 05:14:43;;;;;;;39.05;21.83;;;6.80;99.90;;;;;;4960312;28;20051;-60
2022/03/29 05:17:09;;;;;;;37.92;22.52;;;6.80;99.90;;;;;;4957953;28;20039;-59
2022/03/29 05:19:34;;;;;;;37.10;22.15;;;6.90;99.90;;;;;;4958808;29;20058;-57
2022/03/29 05:22:00;;;;;;;35.33;20.45;;;6.80;99.90;;;;;;4959349;29;20070;-57
2022/03/29 05:24:26;;;;;;;39.67;21.20;;;6.70;99.90;;;;;;4959006;28;20050;-57
2022/03/29 05:26:51;;;;;;;32.78;20.35;;;6.90;99.90;;;;;;4959994;29;20063;-56
2022/03/29 05:29:20;;;;;;;42.83;21.27;;;6.80;99.90;;;;;;4958731;28;20082;-57
2022/03/29 05:31:46;;;;;;;36.42;20.88;;;6.80;99.90;;;;;;4958595;29;20131;-57
2022/03/29 05:34:13;;;;;;;35.33;19.85;;;6.80;99.90;;;;;;4958120;28;20158;-57
2022/03/29 05:36:44;;;;;;;36.53;19.40;;;6.80;99.90;;;;;;4959845;28;20126;-57
2022/03/29 05:39:10;;;;;;;37.47;21.00;;;6.70;99.90;;;;;;4959267;29;20051;-57
2022/03/29 05:41:36;;;;;;;37.65;20.42;;;6.70;99.90;;;;;;4957639;29;20054;-57
2022/03/29 05:44:01;;;;;;;39.15;20.85;;;6.80;99.90;;;;;;4959644;28;20048;-56
2022/03/29 05:49:11;;;;;;;39.08;20.40;;;6.80;99.90;;;;;;4958428;29;20053;-57
2022/03/29 05:51:37;;;;;;;38.08;21.83;;;6.80;99.90;;;;;;4957364;29;20079;-56
2022/03/29 05:54:04;;;;;;;40.63;22.70;;;6.80;99.90;;;;;;4959217;28;20055;-56
2022/03/29 05:56:30;;;;;;;41.05;23.67;;;6.80;99.90;;;;;;4959142;29;20043;-57
2022/03/29 05:58:56;;;;;;;39.08;21.60;;;6.90;99.90;;;;;;4956851;29;20139;-57
2022/03/29 06:01:22;;;;;;;38.50;21.55;;;6.80;99.90;;;;;;4959146;28;20077;-57
2022/03/29 06:03:49;;;;;;;42.97;22.58;;;7.00;99.90;;;;;;4958023;29;20096;-57
2022/03/29 06:06:15;;;;;;;39.97;20.85;;;6.80;99.90;;;;;;4959605;28;20039;-57
2022/03/29 06:08:41;;;;;;;38.17;21.02;;;7.00;99.90;;;;;;4958239;29;20074;-57
2022/03/29 06:11:07;;;;;;;39.85;21.23;;;6.80;99.90;;;;;;4958626;28;20067;-59
2022/03/29 06:13:33;;;;;;;40.25;21.33;;;6.90;99.90;;;;;;4958612;29;20403;-59
2022/03/29 06:15:59;;;;;;;42.47;21.33;;;7.00;99.90;;;;;;4957779;28;20043;-59
2022/03/29 06:18:26;;;;;;;44.90;22.75;;;7.00;99.90;;;;;;4941755;29;20051;-59
2022/03/29 06:20:52;;;;;;;38.38;21.80;;;7.10;99.90;;;;;;4957720;28;20043;-59
2022/03/29 06:23:19;;;;;;;36.83;19.73;;;7.00;99.90;;;;;;4958853;28;20079;-59
2022/03/29 06:25:46;;;;;;;39.55;22.15;;;7.00;99.90;;;;;;4957903;28;20043;-59
2022/03/29 06:28:12;;;;;;;37.72;22.77;;;7.00;99.90;;;;;;4958435;28;20590;-59
2022/03/29 06:30:38;;;;;;;42.10;23.48;;;7.00;99.90;;;;;;4958145;29;20071;-59
2022/03/29 06:33:04;;;;;;;38.72;22.25;;;7.00;99.90;;;;;;4957936;28;20047;-59
2022/03/29 06:35:31;;;;;;;40.88;22.67;;;7.00;99.90;;;;;;4957968;28;20051;-59
2022/03/29 06:37:58;;;;;;;36.92;21.83;;;6.90;99.90;;;;;;4956077;29;20043;-59
2022/03/29 06:40:25;;;;;;;42.03;21.17;;;7.00;99.90;;;;;;4958809;28;20098;-59
2022/03/29 06:42:52;;;;;;;40.10;22.40;;;6.90;99.90;;;;;;4957345;28;20047;-59
2022/03/29 06:45:18;;;;;;;40.95;21.98;;;7.00;99.90;;;;;;4957110;29;20047;-59
2022/03/29 06:47:44;;;;;;;41.92;22.05;;;7.00;99.90;;;;;;4957216;29;20117;-59
2022/03/29 06:50:11;;;;;;;41.70;21.92;;;6.90;99.90;;;;;;4957685;29;20095;-60
2022/03/29 06:52:39;;;;;;;41.72;23.13;;;7.00;99.90;;;;;;4958095;28;20051;-59
2022/03/29 06:55:07;;;;;;;43.90;22.95;;;7.00;99.90;;;;;;4939986;29;20047;-59
2022/03/29 06:57:33;;;;;;;40.70;22.92;;;7.00;99.90;;;;;;4957072;28;20039;-57
2022/03/29 06:59:59;;;;;;;36.83;22.30;;;7.10;99.90;;;;;;4956738;29;20040;-59
2022/03/29 07:02:25;;;;;;;40.45;21.48;;;7.10;99.90;;;;;;4958129;29;20049;-59
2022/03/29 07:04:51;;;;;;;38.67;21.10;;;7.10;99.90;;;;;;4957653;28;20868;-59
2022/03/29 07:07:17;;;;;;;39.38;22.13;;;7.00;99.90;;;;;;4957299;28;20066;-59
2022/03/29 07:12:30;;;;;;;43.75;22.48;;;7.10;99.90;;;;;;4956938;29;20046;-59
2022/03/29 07:15:00;;;;;;;35.83;21.13;;;7.10;99.90;;;;;;4956361;29;20048;-60
2022/03/29 07:17:26;;;;;;;37.13;21.42;;;7.10;99.90;;;;;;4946674;28;20582;-60
2022/03/29 07:19:52;;;;;;;41.22;21.95;;;7.20;99.90;;;;;;4939867;28;20047;-59
2022/03/29 07:22:18;;;;;;;39.13;21.88;;;7.20;99.90;;;;;;4938296;29;20044;-59
2022/03/29 07:24:45;;;;;;;34.20;20.85;;;7.20;99.90;;;;;;4949528;29;20047;-59
2022/03/29 07:27:10;;;;;;;44.20;22.92;;;7.20;99.90;;;;;;4958241;28;20043;-59
2022/03/29 07:29:38;;;;;;;42.95;22.60;;;7.40;99.90;;;;;;4956589;29;20047;-59
2022/03/29 07:32:05;;;;;;;36.08;20.20;;;7.50;99.90;;;;;;4957993;28;20051;-59
2022/03/29 07:34:35;;;;;;;38.72;20.98;;;7.40;99.90;;;;;;4955135;29;20074;-59
2022/03/29 07:37:02;;;;;;;46.78;20.98;;;7.50;99.90;;;;;;4955808;29;20130;-59
2022/03/29 07:39:28;;;;;;;40.63;20.90;;;7.40;99.90;;;;;;4955628;29;20622;-59
2022/03/29 07:41:55;;;;;;;39.67;20.08;;;7.40;99.90;;;;;;4956410;28;20329;-59
2022/03/29 07:44:21;;;;;;;38.40;20.95;;;7.50;99.90;;;;;;4957516;28;20039;-58
2022/03/29 07:46:47;;;;;;;35.00;19.95;;;7.50;99.90;;;;;;4954482;29;20047;-59
2022/03/29 07:49:13;;;;;;;32.85;20.13;;;7.60;99.90;;;;;;4956391;29;20054;-59
2022/03/29 07:51:39;;;;;;;41.35;20.35;;;7.70;99.90;;;;;;4956760;28;20178;-59
2022/03/29 07:54:05;;;;;;;32.15;18.83;;;7.80;99.90;;;;;;4956995;28;20530;-59
2022/03/29 07:56:31;;;;;;;34.75;19.77;;;7.90;99.90;;;;;;4957303;28;20043;-59
2022/03/29 07:58:57;;;;;;;36.10;18.48;;;8.00;99.90;;;;;;4955984;28;20047;-60
2022/03/29 08:01:23;;;;;;;36.83;19.20;;;8.00;99.90;;;;;;4957598;28;20055;-59
2022/03/29 08:03:49;;;;;;;34.92;17.48;;;8.20;99.90;;;;;;4956268;28;20043;-59
2022/03/29 08:06:14;;;;;;;36.47;18.23;;;8.10;99.90;;;;;;4957493;28;20088;-59
2022/03/29 08:08:41;;;;;;;33.38;17.30;;;8.20;99.90;;;;;;4956307;28;20151;-59
2022/03/29 08:11:08;;;;;;;34.05;17.77;;;8.20;99.90;;;;;;4957006;28;20043;-59
2022/03/29 08:13:34;;;;;;;34.30;18.02;;;8.20;99.90;;;;;;4955780;29;20055;-61
2022/03/29 08:16:02;;;;;;;35.63;17.58;;;8.10;99.90;;;;;;4956166;28;20047;-59
2022/03/29 08:18:28;;;;;;;34.40;16.90;;;8.30;99.90;;;;;;4957408;28;20043;-59
2022/03/29 08:20:54;;;;;;;30.20;16.52;;;8.30;99.90;;;;;;4956287;28;20051;-57
2022/03/29 08:23:20;;;;;;;30.15;15.27;;;8.30;99.90;;;;;;4957124;28;20039;-59
2022/03/29 08:25:46;;;;;;;35.83;16.20;;;8.40;99.90;;;;;;4954949;28;20082;-58
2022/03/29 08:28:13;;;;;;;28.98;15.93;;;8.40;99.90;;;;;;4956926;28;20146;-59
2022/03/29 08:30:39;;;;;;;35.33;15.98;;;8.50;99.90;;;;;;4956902;28;20101;-57
2022/03/29 08:33:05;;;;;;;36.55;15.18;;;8.50;99.90;;;;;;4956656;29;20076;-59
2022/03/29 08:35:31;;;;;;;28.83;14.45;;;8.60;99.90;;;;;;4956674;28;20051;-59
2022/03/29 08:37:57;;;;;;;31.23;13.90;;;8.60;99.90;;;;;;4954774;29;20099;-59
2022/03/29 08:40:26;;;;;;;30.50;13.80;;;8.60;99.90;;;;;;4957429;29;20099;-59
2022/03/29 08:42:54;;;;;;;29.90;13.18;;;8.60;99.90;;;;;;4955925;29;20059;-59
2022/03/29 08:45:30;;;;;;;30.42;12.57;;;8.60;99.90;;;;;;4956957;28;20093;-59
2022/03/29 08:47:59;;;;;;;28.15;11.25;;;8.60;99.90;;;;;;4956265;28;20909;-60
2022/03/29 08:50:28;;;;;;;25.45;11.70;;;8.60;99.90;;;;;;4956686;28;20047;-59
2022/03/29 08:52:54;;;;;;;28.65;10.85;;;8.60;99.90;;;;;;4961870;28;20039;-59
2022/03/29 08:55:21;;;;;;;29.73;11.63;;;8.60;99.90;;;;;;4960246;28;20047;-59
2022/03/29 08:57:54;;;;;;;26.75;11.73;;;8.70;99.90;;;;;;4964433;28;20051;-59
2022/03/29 09:00:21;;;;;;;26.45;10.77;;;8.70;99.90;;;;;;4962173;29;20083;-59
2022/03/29 09:02:47;;;;;;;26.20;11.02;;;8.80;99.90;;;;;;4963453;28;20044;-59
2022/03/29 09:05:15;;;;;;;21.42;10.30;;;8.70;99.90;;;;;;4963879;28;20075;-59
2022/03/29 09:08:03;;;;;;;27.23;10.32;;;8.70;99.90;;;;;;4962806;28;20047;-60
2022/03/29 09:10:49;;;;;;;24.67;10.85;;;8.90;99.90;;;;;;4963944;28;20051;-59
2022/03/29 09:13:25;;;;;;;30.85;10.13;;;9.00;99.90;;;;;;4963056;28;20039;-59
2022/03/29 09:15:54;;;;;;;26.00;10.57;;;9.10;99.90;;;;;;4962917;28;20050;-59
2022/03/29 09:18:20;;;;;;;22.40;8.90;;;9.10;99.90;;;;;;4962389;29;20060;-59
2022/03/29 09:21:04;;;;;;;25.35;10.00;;;9.20;99.90;;;;;;4961158;29;20098;-59
2022/03/29 09:23:30;;;;;;;28.17;10.57;;;9.40;99.90;;;;;;4961112;28;20100;-57
2022/03/29 09:25:56;;;;;;;26.52;10.35;;;9.20;99.90;;;;;;4943587;29;20048;-57
2022/03/29 09:28:22;;;;;;;23.80;9.80;;;9.50;99.90;;;;;;4944023;29;20111;-57
2022/03/29 09:30:51;;;;;;;27.20;9.05;;;9.60;99.90;;;;;;4944279;29;20055;-57
2022/03/29 09:33:27;;;;;;;23.90;8.77;;;9.70;99.90;;;;;;4941997;29;20054;-57
2022/03/29 09:36:14;;;;;;;23.63;8.00;;;9.60;99.90;;;;;;4944598;29;20059;-58
2022/03/29 09:38:45;;;;;;;27.52;8.90;;;9.70;99.90;;;;;;4943501;29;20044;-57
2022/03/29 09:41:26;;;;;;;30.95;9.82;;;9.80;99.90;;;;;;4943829;29;20054;-57
2022/03/29 09:44:09;;;;;;;22.67;8.50;;;9.90;99.90;;;;;;4944066;29;20099;-57
2022/03/29 09:46:55;;;;;;;25.08;9.18;;;9.80;99.90;;;;;;4942605;29;20083;-57
2022/03/29 09:49:22;;;;;;;27.45;8.65;;;9.90;99.90;;;;;;4944002;29;20131;-57
2022/03/29 09:52:06;;;;;;;23.02;8.77;;;9.80;99.90;;;;;;4943371;29;20044;-55
2022/03/29 09:54:32;;;;;;;24.33;9.75;;;9.70;99.90;;;;;;4941832;29;20440;-57
2022/03/29 09:56:58;;;;;;;26.50;9.65;;;9.90;99.90;;;;;;4943989;29;20052;-57
2022/03/29 09:59:23;;;;;;;23.80;8.43;;;9.80;99.90;;;;;;4942857;29;20821;-57
2022/03/29 10:01:55;;;;;;;23.90;8.63;;;9.80;99.90;;;;;;4943770;29;20074;-57
2022/03/29 10:04:21;;;;;;;25.08;8.60;;;9.60;99.90;;;;;;4949099;29;20057;-57
2022/03/29 10:06:49;;;;;;;26.05;8.10;;;9.80;99.90;;;;;;4961182;29;20057;-57
2022/03/29 10:09:43;;;;;;;23.10;8.27;;;9.80;99.90;;;;;;4961781;28;20050;-56
2022/03/29 10:12:09;;;;;;;19.58;7.35;;;9.70;99.90;;;;;;4958076;28;20055;-55
2022/03/29 10:14:37;;;;;;;24.42;8.00;;;9.90;99.90;;;;;;4962926;28;20043;-57
2022/03/29 10:17:06;;;;;;;20.60;6.93;;;10.10;99.90;;;;;;4959979;29;20043;-57
2022/03/29 10:19:32;;;;;;;21.20;7.43;;;10.20;99.90;;;;;;4962237;28;20043;-57
2022/03/29 10:21:59;;;;;;;25.25;7.90;;;10.30;99.90;;;;;;4962038;28;20074;-57
2022/03/29 10:24:25;;;;;;;24.38;9.45;;;10.60;99.90;;;;;;4961664;28;20411;-57
2022/03/29 10:26:53;;;;;;;20.48;7.85;;;10.40;99.90;;;;;;4962461;28;20043;-57
2022/03/29 10:29:20;;;;;;;22.98;8.15;;;10.50;99.90;;;;;;4961224;28;20051;-57
2022/03/29 10:32:01;;;;;;;23.52;8.35;;;10.50;99.90;;;;;;4962350;28;20037;-57
2022/03/29 10:34:40;;;;;;;27.67;9.13;;;10.60;99.90;;;;;;4959670;29;20069;-55
2022/03/29 10:37:12;;;;;;;22.42;8.65;;;10.90;99.90;;;;;;4961514;28;20051;-56
2022/03/29 10:39:50;;;;;;;20.75;6.97;;;10.70;99.90;;;;;;4961898;29;20035;-57
2022/03/29 10:42:44;;;;;;;20.35;7.80;;;10.90;99.90;;;;;;4960670;28;20229;-56
2022/03/29 10:45:25;;;;;;;21.17;7.85;;;10.90;99.90;;;;;;4960670;29;20054;-57
2022/03/29 10:47:56;;;;;;;18.88;8.48;;;10.90;99.90;;;;;;4961390;28;20053;-57
2022/03/29 10:50:21;;;;;;;23.55;7.88;;;10.60;99.90;;;;;;4960899;29;20054;-56
2022/03/29 10:52:49;;;;;;;19.08;8.20;;;10.70;99.90;;;;;;4962127;29;20039;-57
2022/03/29 10:55:17;;;;;;;26.80;8.60;;;10.40;99.90;;;;;;4960661;28;20090;-57
2022/03/29 10:58:16;;;;;;;21.48;8.15;;;10.10;99.90;;;;;;4958350;28;20351;-56
2022/03/29 11:00:45;;;;;;;23.08;8.68;;;10.40;99.90;;;;;;4950325;28;20043;-56
2022/03/29 11:03:20;;;;;;;24.67;8.27;;;10.30;99.90;;;;;;4949996;29;20039;-58
2022/03/29 11:06:17;;;;;;;22.75;8.48;;;10.30;99.90;;;;;;4953803;28;20043;-58
2022/03/29 11:08:50;;;;;;;20.40;8.48;;;10.30;99.90;;;;;;4941387;29;20059;-57
2022/03/29 11:11:35;;;;;;;27.35;8.75;;;10.50;99.90;;;;;;4941754;29;20044;-57
2022/03/29 11:14:30;;;;;;;19.30;8.55;;;10.80;99.90;;;;;;4940973;29;20047;-57
2022/03/29 11:17:11;;;;;;;21.45;8.80;;;10.90;99.90;;;;;;4939647;29;20051;-57
2022/03/29 11:19:48;;;;;;;21.40;8.50;;;10.90;99.90;;;;;;4940966;29;20474;-57
2022/03/29 11:22:42;;;;;;;24.35;9.55;;;10.70;99.90;;;;;;4941891;29;20044;-57
2022/03/29 11:25:12;;;;;;;18.42;8.25;;;10.60;99.90;;;;;;4956284;29;20086;-57
2022/03/29 11:27:38;;;;;;;18.25;8.52;;;10.20;99.90;;;;;;4960121;29;20062;-57
2022/03/29 11:30:07;;;;;;;18.17;8.43;;;10.30;99.90;;;;;;4960402;29;20098;-57
2022/03/29 11:32:39;;;;;;;22.42;8.55;;;10.20;99.90;;;;;;4960534;29;20051;-57
2022/03/29 11:35:07;;;;;;;22.77;8.50;;;10.20;99.90;;;;;;4961019;29;20086;-57
2022/03/29 11:37:43;;;;;;;21.27;8.45;;;9.90;99.90;;;;;;4960125;28;20052;-57
2022/03/29 11:40:11;;;;;;;21.13;7.78;;;9.80;99.90;;;;;;4960320;29;20058;-57
2022/03/29 11:42:49;;;;;;;26.27;9.45;;;9.90;99.90;;;;;;4959895;28;20043;-56
2022/03/29 11:45:19;;;;;;;26.08;9.65;;;9.70;99.90;;;;;;4960784;29;20051;-57
2022/03/29 11:48:14;;;;;;;26.17;8.18;;;9.70;99.90;;;;;;4960567;29;20078;-57
2022/03/29 11:50:51;;;;;;;22.83;7.82;;;9.60;99.90;;;;;;4959877;29;20065;-57
2022/03/29 11:53:22;;;;;;;24.88;8.60;;;9.60;99.90;;;;;;4956977;29;20065;-57
2022/03/29 11:56:01;;;;;;;27.67;9.55;;;9.80;99.90;;;;;;4948420;29;20048;-56
2022/03/29 11:58:43;;;;;;;20.73;8.30;;;10.00;99.90;;;;;;4948041;29;20050;-56
2022/03/29 12:01:18;;;;;;;21.47;7.57;;;9.90;99.90;;;;;;4949483;29;20044;-57
2022/03/29 12:03:52;;;;;;;23.08;8.73;;;10.10;99.90;;;;;;4951619;29;20039;-57
2022/03/29 12:06:26;;;;;;;22.60;8.43;;;10.20;99.90;;;;;;4950849;29;20059;-56
2022/03/29 12:08:56;;;;;;;23.60;9.90;;;10.20;99.90;;;;;;4957555;29;20529;-57
2022/03/29 12:11:32;;;;;;;24.05;8.18;;;10.20;99.90;;;;;;4960107;29;20051;-57
2022/03/29 12:14:08;;;;;;;24.70;8.10;;;10.30;99.90;;;;;;4961052;29;20050;-57
2022/03/29 12:16:35;;;;;;;24.23;7.63;;;10.30;99.90;;;;;;4959492;29;20047;-57
2022/03/29 12:19:06;;;;;;;26.67;7.80;;;10.30;99.90;;;;;;4959514;29;20083;-56
2022/03/29 12:21:32;;;;;;;22.67;7.88;;;10.40;99.90;;;;;;4958360;29;20098;-57
2022/03/29 12:24:01;;;;;;;20.88;6.97;;;10.50;99.90;;;;;;4954698;29;20044;-58
2022/03/29 12:26:29;;;;;;;21.13;8.05;;;10.60;99.90;;;;;;4944055;29;20039;-57
2022/03/29 12:28:58;;;;;;;24.48;8.70;;;10.80;99.90;;;;;;4944081;29;20319;-57
2022/03/29 12:31:27;;;;;;;22.20;8.20;;;10.80;99.90;;;;;;4945498;29;20091;-56
2022/03/29 12:33:53;;;;;;;21.42;7.55;;;10.90;99.90;;;;;;4944134;29;20086;-57
2022/03/29 12:36:19;;;;;;;23.35;8.27;;;10.90;99.90;;;;;;4945213;29;20107;-57
2022/03/29 12:39:13;;;;;;;20.27;8.65;;;10.40;99.90;;;;;;4942752;29;20484;-57
2022/03/29 12:41:41;;;;;;;20.63;8.35;;;10.40;99.90;;;;;;4943414;29;20115;-56
2022/03/29 12:44:12;;;;;;;17.67;7.55;;;10.60;99.90;;;;;;4945143;29;20480;-57
2022/03/29 12:46:43;;;;;;;21.42;8.77;;;10.50;99.90;;;;;;4943197;29;20078;-57
2022/03/29 12:49:10;;;;;;;18.90;8.27;;;10.60;99.90;;;;;;4944973;29;20044;-57
2022/03/29 12:51:37;;;;;;;21.20;8.68;;;10.70;99.90;;;;;;4943801;29;20244;-56
2022/03/29 12:54:06;;;;;;;24.05;9.07;;;10.70;99.90;;;;;;4943985;29;20079;-56